sim
Sign-in with your pilot id or email,
or register
Callsign
Passwort

Schedule Details

Flight Number: OEO5750
Departure: Dusseldorf International Airport (EDDL) at 12:20
Arrival: Geneva International Airport (LSGG) at 13:45

Weather Information
Getting current METAR information for EDDL 101950Z 16009KT 9999 -RADZ FEW008 BKN028 10/09 Q1007 NOSIG
Getting current METAR information for LSGG 101950Z 22005KT 9999 SCT090 12/03 Q1013 NOSIG

Schedule Frequency

Route Map